createdAt,value
2018-08-09T00:01:49.455Z,4.42
2018-08-09T00:04:19.699Z,3.90
2018-08-09T00:06:49.692Z,3.60
2018-08-09T00:09:19.763Z,3.58
2018-08-09T00:11:49.934Z,3.20
2018-08-09T00:14:19.914Z,3.10
2018-08-09T00:16:52.913Z,3.52
2018-08-09T00:19:23.014Z,3.62
2018-08-09T00:21:53.057Z,3.50
2018-08-09T00:24:23.112Z,3.75
2018-08-09T00:26:53.251Z,4.28
2018-08-09T00:29:23.368Z,4.35
2018-08-09T00:31:53.399Z,4.12
2018-08-09T00:34:23.504Z,4.42
2018-08-09T00:36:53.557Z,4.28
2018-08-09T00:39:23.639Z,4.45
2018-08-09T00:41:53.705Z,4.62
2018-08-09T00:44:23.754Z,4.45
2018-08-09T00:46:53.895Z,4.67
2018-08-09T00:49:23.981Z,5.22
2018-08-09T00:51:54.036Z,4.35
2018-08-09T00:54:24.216Z,4.60
2018-08-09T00:56:54.333Z,4.70
2018-08-09T00:59:24.389Z,4.50
2018-08-09T01:01:54.508Z,4.72
2018-08-09T01:04:24.585Z,4.70
2018-08-09T01:06:54.765Z,4.37
2018-08-09T01:09:24.824Z,4.30
2018-08-09T01:11:54.971Z,4.50
2018-08-09T01:14:25.089Z,4.78
2018-08-09T01:16:55.182Z,5.05
2018-08-09T01:19:25.311Z,4.85
2018-08-09T01:21:55.316Z,4.67
2018-08-09T01:24:25.453Z,4.30
2018-08-09T01:26:55.613Z,4.90
2018-08-09T01:29:25.734Z,5.62
2018-08-09T01:31:55.841Z,4.65
2018-08-09T01:34:25.951Z,5.05
2018-08-09T01:36:56.788Z,5.25
2018-08-09T01:39:26.909Z,5.10
2018-08-09T01:42:13.427Z,5.03
2018-08-09T01:44:43.492Z,5.22
2018-08-09T01:47:13.644Z,5.20
2018-08-09T01:49:43.594Z,5.35
2018-08-09T01:52:13.702Z,5.40
2018-08-09T01:54:43.826Z,5.40
2018-08-09T01:57:13.989Z,5.50
2018-08-09T01:59:50.707Z,5.42
2018-08-09T02:02:20.832Z,5.12
2018-08-09T02:04:51.077Z,5.22
2018-08-09T02:07:21.104Z,5.17
2018-08-09T02:09:51.160Z,5.37
2018-08-09T02:12:21.239Z,4.67
2018-08-09T02:14:51.287Z,5.42
2018-08-09T02:17:21.301Z,5.50
2018-08-09T02:19:51.323Z,5.90
2018-08-09T02:22:21.414Z,5.95
2018-08-09T02:24:51.484Z,6.57
2018-08-09T02:27:21.629Z,6.10
2018-08-09T02:29:51.702Z,5.80
2018-08-09T02:32:21.776Z,6.22
2018-08-09T02:34:52.643Z,6.25
2018-08-09T02:37:22.720Z,5.28
2018-08-09T02:39:52.929Z,4.47
2018-08-09T02:42:22.957Z,4.57
2018-08-09T02:44:53.049Z,4.63
2018-08-09T02:47:23.109Z,4.87
2018-08-09T02:49:54.341Z,5.70
2018-08-09T02:52:25.349Z,6.00
2018-08-09T02:54:55.472Z,5.60
2018-08-09T02:57:25.524Z,5.40
2018-08-09T02:59:56.931Z,5.70
2018-08-09T03:02:27.044Z,5.50
2018-08-09T03:04:57.613Z,5.97
2018-08-09T03:07:27.593Z,5.53
2018-08-09T03:09:57.679Z,5.57
2018-08-09T03:12:27.738Z,5.80
2018-08-09T03:14:57.789Z,5.80
2018-08-09T03:17:27.884Z,6.40
2018-08-09T03:19:57.941Z,6.70
2018-08-09T03:22:28.097Z,6.10
2018-08-09T03:24:58.090Z,5.80
2018-08-09T03:27:28.194Z,5.50
2018-08-09T03:29:58.267Z,5.63
2018-08-09T03:32:28.363Z,5.97
2018-08-09T03:34:58.435Z,5.87
2018-08-09T03:37:28.515Z,5.30
2018-08-09T03:39:58.619Z,4.63
2018-08-09T03:42:28.671Z,5.97
2018-08-09T03:44:58.755Z,43.73
2018-08-09T03:47:28.769Z,5.80
2018-08-09T03:49:58.831Z,5.70
2018-08-09T03:52:28.912Z,5.37
2018-08-09T03:54:58.984Z,5.17
2018-08-09T03:57:29.022Z,5.43
2018-08-09T03:59:59.173Z,5.60
2018-08-09T04:02:29.283Z,5.23
2018-08-09T04:04:59.371Z,5.53
2018-08-09T04:07:29.460Z,5.60
2018-08-09T04:09:59.603Z,5.30
2018-08-09T04:12:29.668Z,5.77
2018-08-09T04:14:59.829Z,5.80
2018-08-09T04:17:30.052Z,5.33
2018-08-09T04:20:00.151Z,5.53
2018-08-09T04:22:30.260Z,5.87
2018-08-09T04:25:00.458Z,5.77
2018-08-09T04:27:30.468Z,5.77
2018-08-09T04:30:00.527Z,6.17
2018-08-09T04:32:37.061Z,6.50
2018-08-09T04:35:07.269Z,6.47
2018-08-09T04:37:37.321Z,6.10
2018-08-09T04:40:07.469Z,6.20
2018-08-09T04:42:37.573Z,5.33
2018-08-09T04:45:08.337Z,5.43
2018-08-09T04:47:38.899Z,5.03
2018-08-09T04:50:09.491Z,5.62
2018-08-09T04:52:39.508Z,6.00
2018-08-09T04:55:09.603Z,6.40
2018-08-09T04:57:39.650Z,6.20
2018-08-09T05:00:09.880Z,6.37
2018-08-09T05:02:39.942Z,6.93
2018-08-09T05:05:10.239Z,8.43
2018-08-09T05:07:40.308Z,8.70
2018-08-09T05:10:11.961Z,10.90
2018-08-09T05:12:43.009Z,7.80
2018-08-09T05:15:14.304Z,8.40
2018-08-09T05:17:44.401Z,9.17
2018-08-09T05:20:14.544Z,8.73
2018-08-09T05:22:44.660Z,8.27
2018-08-09T05:25:14.754Z,9.67
2018-08-09T05:27:44.877Z,10.77
2018-08-09T05:30:15.122Z,10.10
2018-08-09T05:32:45.183Z,9.53
2018-08-09T05:35:15.247Z,10.07
2018-08-09T05:37:45.362Z,10.83
2018-08-09T05:40:15.584Z,11.17
2018-08-09T05:42:45.724Z,10.77
2018-08-09T05:45:15.984Z,10.97
2018-08-09T05:47:46.190Z,10.87
2018-08-09T05:50:16.458Z,11.13
2018-08-09T05:52:46.688Z,10.97
2018-08-09T05:55:16.694Z,11.03
2018-08-09T05:57:46.770Z,10.27
2018-08-09T06:00:16.927Z,11.23
2018-08-09T06:02:47.034Z,10.70
2018-08-09T06:05:17.100Z,10.40
2018-08-09T06:07:47.289Z,9.80
2018-08-09T06:10:17.412Z,9.93
2018-08-09T06:12:48.192Z,11.07
2018-08-09T06:15:18.331Z,9.80
2018-08-09T06:17:48.399Z,10.00
2018-08-09T06:20:18.521Z,10.03
2018-08-09T06:22:48.599Z,9.03
2018-08-09T06:25:18.740Z,9.13
2018-08-09T06:27:48.864Z,9.50
2018-08-09T06:30:19.030Z,9.70
2018-08-09T06:32:49.251Z,9.93
2018-08-09T06:35:19.420Z,9.80
2018-08-09T06:37:49.610Z,9.73
2018-08-09T06:40:19.780Z,9.87
2018-08-09T06:42:49.939Z,9.97
2018-08-09T06:45:20.139Z,10.43
2018-08-09T06:47:50.324Z,10.33
2018-08-09T06:50:20.548Z,9.70
2018-08-09T06:52:50.763Z,9.70
2018-08-09T06:55:20.928Z,10.20
2018-08-09T06:57:51.098Z,9.90
2018-08-09T07:00:24.214Z,9.67
2018-08-09T07:02:55.446Z,10.43
2018-08-09T07:05:25.567Z,10.67
2018-08-09T07:07:55.667Z,10.00
2018-08-09T07:10:25.822Z,9.97
2018-08-09T07:12:56.011Z,10.17
2018-08-09T07:15:26.079Z,9.60
2018-08-09T07:17:56.217Z,10.80
2018-08-09T07:20:26.366Z,10.80
2018-08-09T07:22:56.439Z,9.97
2018-08-09T07:25:26.568Z,9.97
2018-08-09T07:27:56.707Z,10.67
2018-08-09T07:30:26.885Z,10.23
2018-08-09T07:32:57.040Z,11.20
2018-08-09T07:35:27.089Z,9.73
2018-08-09T07:37:57.170Z,10.10
2018-08-09T07:40:27.329Z,9.57
2018-08-09T07:42:57.441Z,10.60
2018-08-09T07:45:27.628Z,9.10
2018-08-09T07:47:57.810Z,9.07
2018-08-09T07:50:27.923Z,9.57
2018-08-09T07:52:58.078Z,8.10
2018-08-09T07:55:28.470Z,7.50
2018-08-09T07:57:58.607Z,7.62
2018-08-09T08:00:28.834Z,6.20
2018-08-09T08:02:58.869Z,6.77
2018-08-09T08:05:29.051Z,6.62
2018-08-09T08:07:59.176Z,5.97
2018-08-09T08:10:29.376Z,5.67
2018-08-09T08:12:59.506Z,5.50
2018-08-09T08:15:29.683Z,5.78
2018-08-09T08:17:59.834Z,5.53
2018-08-09T08:20:29.984Z,5.70
2018-08-09T08:23:00.160Z,5.55
2018-08-09T08:25:30.326Z,5.58
2018-08-09T08:28:00.410Z,5.43
2018-08-09T08:30:30.465Z,5.50
2018-08-09T08:33:00.596Z,5.75
2018-08-09T08:35:30.690Z,6.12
2018-08-09T08:38:00.793Z,6.55
2018-08-09T08:40:30.948Z,7.37
2018-08-09T08:43:01.236Z,6.90
2018-08-09T08:45:31.390Z,7.50
2018-08-09T08:48:01.510Z,6.60
2018-08-09T08:50:31.573Z,6.62
2018-08-09T08:53:01.897Z,7.15
2018-08-09T08:55:32.074Z,8.03
2018-08-09T08:58:02.220Z,7.70
2018-08-09T09:00:32.454Z,8.85
2018-08-09T09:03:02.739Z,9.00
2018-08-09T09:05:32.977Z,8.85
2018-08-09T09:08:06.014Z,8.75
2018-08-09T09:10:36.173Z,10.10
2018-08-09T09:13:06.524Z,10.45
2018-08-09T09:15:36.684Z,10.18
2018-08-09T09:18:07.475Z,9.60
2018-08-09T09:20:37.563Z,11.03
2018-08-09T09:23:08.637Z,10.82
2018-08-09T09:25:38.857Z,10.78
2018-08-09T09:28:09.459Z,9.75
2018-08-09T09:30:40.014Z,10.25
2018-08-09T09:33:12.653Z,11.10
2018-08-09T09:35:42.817Z,10.53
2018-08-09T09:38:12.849Z,12.85
2018-08-09T09:40:42.916Z,12.30
2018-08-09T09:43:13.155Z,14.35
2018-08-09T09:45:49.848Z,13.28
2018-08-09T09:48:19.972Z,12.80
2018-08-09T09:50:50.175Z,12.05
2018-08-09T09:53:20.836Z,12.20
2018-08-09T09:55:50.987Z,11.78
2018-08-09T09:58:21.079Z,12.75
2018-08-09T10:00:56.392Z,12.13
2018-08-09T10:03:26.536Z,13.15
2018-08-09T10:05:56.734Z,12.47
2018-08-09T10:08:26.984Z,12.10
2018-08-09T10:10:57.030Z,12.63
2018-08-09T10:13:27.176Z,14.58
2018-08-09T10:15:57.331Z,13.25
2018-08-09T10:18:27.397Z,13.50
2018-08-09T10:20:58.249Z,12.80
2018-08-09T10:23:29.315Z,10.20
2018-08-09T10:26:03.953Z,12.18
2018-08-09T10:28:36.340Z,12.10
2018-08-09T10:31:13.167Z,11.50
2018-08-09T10:33:43.349Z,10.03
2018-08-09T10:36:13.480Z,11.12
2018-08-09T10:38:43.650Z,11.45
2018-08-09T10:41:13.730Z,11.18
2018-08-09T10:43:44.477Z,10.78
2018-08-09T10:46:14.528Z,10.70
2018-08-09T10:48:44.667Z,8.90
2018-08-09T10:51:14.819Z,8.65
2018-08-09T10:53:45.924Z,7.58
2018-08-09T10:56:16.065Z,8.88
2018-08-09T10:58:46.199Z,7.72
2018-08-09T11:01:16.387Z,7.58
2018-08-09T11:03:46.555Z,7.42
2018-08-09T11:06:16.768Z,6.30
2018-08-09T11:08:46.941Z,7.35
2018-08-09T11:11:17.258Z,7.22
2018-08-09T11:13:47.449Z,7.15
2018-08-09T11:16:17.534Z,6.97
2018-08-09T11:18:47.836Z,7.42
2018-08-09T11:21:17.903Z,7.15
2018-08-09T11:23:48.120Z,7.10
2018-08-09T11:26:18.268Z,7.45
2018-08-09T11:28:48.421Z,7.87
2018-08-09T11:31:18.564Z,6.72
2018-08-09T11:33:48.678Z,7.30
2018-08-09T11:36:18.925Z,6.58
2018-08-09T11:38:49.119Z,6.65
2018-08-09T11:41:19.227Z,7.12
2018-08-09T11:43:49.445Z,7.17
2018-08-09T11:46:19.654Z,6.67
2018-08-09T11:48:49.837Z,6.25
2018-08-09T11:51:19.987Z,6.28
2018-08-09T11:53:50.063Z,5.97
2018-08-09T11:56:20.894Z,7.47
2018-08-09T11:58:51.056Z,8.48
2018-08-09T12:01:21.183Z,8.25
2018-08-09T12:03:51.389Z,7.90
2018-08-09T12:06:21.523Z,8.90
2018-08-09T12:08:51.864Z,8.10
2018-08-09T12:11:22.010Z,8.88
2018-08-09T12:13:52.255Z,8.65
2018-08-09T12:16:22.408Z,7.95
2018-08-09T12:18:52.558Z,8.08
2018-08-09T12:21:22.649Z,8.18
2018-08-09T12:23:52.772Z,9.53
2018-08-09T12:26:22.926Z,9.15
2018-08-09T12:28:53.047Z,8.88
2018-08-09T12:31:24.349Z,7.83
2018-08-09T12:33:54.569Z,8.70
2018-08-09T12:36:24.847Z,8.90
2018-08-09T12:38:54.965Z,8.48
2018-08-09T12:41:25.252Z,9.00
2018-08-09T12:43:55.468Z,8.63
2018-08-09T12:46:25.680Z,9.08
2018-08-09T12:48:55.962Z,9.60
2018-08-09T12:51:26.343Z,10.65
2018-08-09T12:53:56.597Z,8.98
2018-08-09T12:56:26.894Z,9.93
2018-08-09T12:58:57.203Z,10.38
2018-08-09T13:01:27.441Z,10.30
2018-08-09T13:03:57.703Z,9.63
2018-08-09T13:06:28.554Z,9.95
2018-08-09T13:08:58.888Z,10.32
2018-08-09T13:11:29.086Z,9.98
2018-08-09T13:13:59.304Z,9.40
2018-08-09T13:16:29.590Z,10.63
2018-08-09T13:18:59.734Z,10.80
2018-08-09T13:21:29.898Z,10.30
2018-08-09T13:24:00.114Z,11.25
2018-08-09T13:26:30.434Z,12.43
2018-08-09T13:29:00.601Z,11.93
2018-08-09T13:31:30.752Z,11.65
2018-08-09T13:34:00.861Z,12.65
2018-08-09T13:36:31.177Z,12.63
2018-08-09T13:39:01.404Z,13.10
2018-08-09T13:41:31.559Z,12.85
2018-08-09T13:44:01.770Z,13.10
2018-08-09T13:46:32.046Z,12.20
2018-08-09T13:49:02.306Z,13.88
2018-08-09T13:51:32.661Z,13.13
2018-08-09T13:54:03.277Z,13.62
2018-08-09T13:56:33.518Z,16.23
2018-08-09T13:59:04.455Z,15.18
2018-08-09T14:01:34.806Z,17.62
2018-08-09T14:04:05.134Z,17.37
2018-08-09T14:06:35.399Z,14.33
2018-08-09T14:09:11.472Z,15.53
2018-08-09T14:11:42.160Z,11.43
2018-08-09T14:14:13.050Z,9.90
2018-08-09T14:16:43.428Z,9.10
2018-08-09T14:19:13.668Z,8.70
2018-08-09T14:21:44.229Z,8.25
2018-08-09T14:24:14.673Z,8.65
2018-08-09T14:26:45.101Z,8.93
2018-08-09T14:29:15.673Z,9.18
2018-08-09T14:31:46.102Z,6.45
2018-08-09T14:34:16.491Z,6.45
2018-08-09T14:36:46.933Z,4.53
2018-08-09T14:39:17.344Z,4.20
2018-08-09T14:41:47.844Z,4.15
2018-08-09T14:44:18.192Z,4.00
2018-08-09T14:46:48.889Z,3.12
2018-08-09T14:49:20.009Z,3.22
2018-08-09T14:51:50.554Z,3.67
2018-08-09T14:54:23.219Z,3.85
2018-08-09T14:56:54.914Z,3.58
2018-08-09T14:59:26.785Z,3.27
2018-08-09T15:01:57.650Z,3.15
2018-08-09T15:04:27.948Z,2.75
2018-08-09T15:06:59.489Z,3.62
2018-08-09T15:09:35.449Z,3.52
2018-08-09T15:12:07.541Z,3.15
2018-08-09T15:14:39.827Z,3.50
2018-08-09T15:17:10.927Z,3.35
2018-08-09T15:19:41.357Z,3.52
2018-08-09T15:22:11.758Z,3.42
2018-08-09T15:24:42.135Z,3.52
2018-08-09T15:27:12.455Z,3.42
2018-08-09T15:29:42.717Z,3.33
2018-08-09T15:32:13.106Z,3.47
2018-08-09T15:34:51.407Z,2.92
2018-08-09T15:37:21.780Z,3.20
2018-08-09T15:39:56.103Z,3.58
2018-08-09T15:42:27.019Z,3.10
2018-08-09T15:44:57.368Z,2.67
2018-08-09T15:47:27.833Z,3.15
2018-08-09T15:49:58.393Z,3.07
2018-08-09T15:52:29.049Z,3.00
2018-08-09T15:55:00.440Z,3.03
2018-08-09T15:57:30.787Z,2.95
2018-08-09T16:00:01.131Z,3.10
2018-08-09T16:02:31.458Z,3.30
2018-08-09T16:05:04.533Z,2.90
2018-08-09T16:07:34.889Z,3.02
2018-08-09T16:10:07.439Z,2.70
2018-08-09T16:12:37.987Z,3.60
2018-08-09T16:15:10.044Z,3.45
2018-08-09T16:17:40.347Z,3.20
2018-08-09T16:20:11.656Z,2.70
2018-08-09T16:22:42.851Z,3.75
2018-08-09T16:25:16.249Z,3.10
2018-08-09T16:27:46.745Z,2.98
2018-08-09T16:30:22.663Z,3.17
2018-08-09T16:32:52.923Z,3.12
2018-08-09T16:35:23.314Z,3.60
2018-08-09T16:37:53.585Z,3.12
2018-08-09T16:40:26.234Z,3.30
2018-08-09T16:42:56.890Z,3.05
2018-08-09T16:45:27.147Z,2.95
2018-08-09T16:47:57.549Z,3.00
2018-08-09T16:50:28.719Z,3.15
2018-08-09T16:52:59.205Z,3.20
2018-08-09T16:55:49.171Z,3.02
2018-08-09T16:58:19.393Z,2.92
2018-08-09T17:00:49.637Z,3.25
2018-08-09T17:03:19.820Z,2.90
2018-08-09T17:05:50.113Z,3.10
2018-08-09T17:08:20.285Z,3.40
2018-08-09T17:10:56.448Z,3.00
2018-08-09T17:13:41.274Z,2.87
2018-08-09T17:20:39.879Z,2.80
2018-08-09T17:23:10.198Z,2.83
2018-08-09T17:25:40.586Z,3.22
2018-08-09T17:28:10.883Z,2.80
2018-08-09T17:30:41.097Z,2.87
2018-08-09T17:33:11.340Z,3.00
2018-08-09T17:35:41.605Z,2.70
2018-08-09T17:38:11.840Z,2.37
2018-08-09T17:40:42.089Z,2.47
2018-08-09T17:43:12.224Z,2.87
2018-08-09T17:45:42.449Z,2.02
2018-08-09T17:48:12.644Z,2.70
2018-08-09T17:50:44.039Z,2.20
2018-08-09T17:53:14.260Z,2.45
2018-08-09T17:55:44.539Z,2.20
2018-08-09T17:58:14.809Z,2.50
2018-08-09T18:00:44.949Z,2.45
2018-08-09T18:03:15.598Z,2.65
2018-08-09T18:05:45.836Z,2.62
2018-08-09T18:08:16.163Z,2.70
2018-08-09T18:10:46.356Z,2.50
2018-08-09T18:13:16.460Z,2.60
2018-08-09T18:15:46.697Z,2.42
2018-08-09T18:18:16.893Z,2.30
2018-08-09T18:20:47.199Z,2.58
2018-08-09T18:23:17.996Z,2.72
2018-08-09T18:25:48.213Z,2.42
2018-08-09T18:28:18.574Z,2.45
2018-08-09T18:30:48.924Z,2.42
2018-08-09T18:33:19.193Z,2.60
2018-08-09T18:35:49.800Z,2.15
2018-08-09T18:38:20.215Z,2.35
2018-08-09T18:40:50.775Z,2.33
2018-08-09T18:43:21.429Z,2.30
2018-08-09T18:45:53.394Z,2.40
2018-08-09T18:48:23.800Z,2.50
2018-08-09T18:50:56.215Z,1.87
2018-08-09T18:53:26.409Z,2.47
2018-08-09T18:55:56.619Z,2.47
2018-08-09T18:58:26.934Z,2.45
2018-08-09T19:00:57.201Z,2.45
2018-08-09T19:03:27.463Z,2.42
2018-08-09T19:05:57.859Z,2.77
2018-08-09T19:08:29.327Z,2.33
2018-08-09T19:11:01.329Z,2.52
2018-08-09T19:13:32.119Z,2.52
2018-08-09T19:16:04.970Z,2.35
2018-08-09T19:18:35.754Z,2.47
2018-08-09T19:21:06.541Z,2.83
2018-08-09T19:23:37.899Z,2.42
2018-08-09T19:26:10.044Z,2.45
2018-08-09T19:28:40.639Z,2.33
2018-08-09T19:31:11.377Z,2.60
2018-08-09T19:33:42.108Z,2.55
2018-08-09T19:36:13.059Z,2.33
2018-08-09T19:38:44.098Z,2.40
2018-08-09T19:41:14.960Z,2.55
2018-08-09T19:43:45.877Z,2.72
2018-08-09T19:46:22.908Z,2.95
2018-08-09T19:48:54.713Z,2.40
2018-08-09T19:51:25.299Z,2.60
2018-08-09T19:53:55.597Z,2.42
2018-08-09T19:56:26.849Z,2.70
2018-08-09T19:58:57.067Z,2.30
2018-08-09T20:01:27.423Z,2.10
2018-08-09T20:03:57.639Z,2.02
2018-08-09T20:06:27.929Z,2.37
2018-08-09T20:09:06.940Z,2.15
2018-08-09T20:11:38.359Z,2.20
2018-08-09T20:14:08.632Z,2.22
2018-08-09T20:16:38.792Z,2.10
2018-08-09T20:19:08.961Z,2.10
2018-08-09T20:21:39.129Z,2.20
2018-08-09T20:24:09.473Z,2.20
2018-08-09T20:26:39.604Z,1.92
2018-08-09T20:29:09.832Z,2.00
2018-08-09T20:31:40.050Z,2.20
2018-08-09T20:34:10.370Z,2.30
2018-08-09T20:36:40.537Z,2.33
2018-08-09T20:39:13.146Z,2.10
2018-08-09T20:41:43.387Z,2.27
2018-08-09T20:44:13.559Z,2.25
2018-08-09T20:46:43.684Z,1.93
2018-08-09T20:49:14.027Z,1.93
2018-08-09T20:51:44.215Z,1.72
2018-08-09T20:54:14.892Z,1.90
2018-08-09T20:56:45.027Z,1.73
2018-08-09T20:59:16.090Z,2.05
2018-08-09T21:01:46.297Z,2.10
2018-08-09T21:04:16.828Z,2.00
2018-08-09T21:06:47.034Z,2.17
2018-08-09T21:09:17.288Z,2.02
2018-08-09T21:11:47.517Z,1.77
2018-08-09T21:14:17.654Z,1.60
2018-08-09T21:16:48.685Z,1.62
2018-08-09T21:19:18.717Z,1.90
2018-08-09T21:21:48.898Z,1.90
2018-08-09T21:24:20.598Z,1.53
2018-08-09T21:26:50.816Z,1.67
2018-08-09T21:29:20.839Z,1.67
2018-08-09T21:31:51.026Z,1.83
2018-08-09T21:34:21.092Z,1.97
2018-08-09T21:36:52.516Z,1.83
2018-08-09T21:39:22.688Z,2.10
2018-08-09T21:41:52.754Z,1.90
2018-08-09T21:44:22.955Z,1.43
2018-08-09T21:46:53.002Z,2.17
2018-08-09T21:49:23.663Z,1.93
2018-08-09T21:51:53.797Z,2.30
2018-08-09T21:54:23.898Z,2.50
2018-08-09T21:56:54.710Z,2.70
2018-08-09T21:59:24.732Z,2.30
2018-08-09T22:01:54.769Z,2.10
2018-08-09T22:04:24.929Z,2.30
2018-08-09T22:06:59.968Z,1.90
2018-08-09T22:09:35.184Z,1.70
2018-08-09T22:12:10.280Z,1.70
2018-08-09T22:14:45.444Z,1.77
2018-08-09T22:17:20.553Z,1.40
2018-08-09T22:19:56.515Z,1.67
2018-08-09T22:22:27.533Z,1.50
2018-08-09T22:24:58.336Z,1.40
2018-08-09T22:27:28.459Z,1.60
2018-08-09T22:29:58.509Z,1.50
2018-08-09T22:32:28.627Z,1.63
2018-08-09T22:34:58.969Z,1.40
2018-08-09T22:37:29.204Z,1.77
2018-08-09T22:39:59.326Z,1.50
2018-08-09T22:42:29.525Z,1.93
2018-08-09T22:44:59.728Z,2.17
2018-08-09T22:47:30.110Z,1.90
2018-08-09T22:50:01.404Z,1.60
2018-08-09T22:52:31.715Z,1.70
2018-08-09T22:55:03.060Z,2.17
2018-08-09T22:57:33.195Z,3.07
2018-08-09T23:00:03.481Z,3.67
2018-08-09T23:02:33.635Z,3.83
2018-08-09T23:05:03.937Z,4.53
2018-08-09T23:07:34.111Z,4.63
2018-08-09T23:10:04.609Z,4.90
2018-08-09T23:12:34.936Z,4.57
2018-08-09T23:15:06.842Z,4.37
2018-08-09T23:17:37.003Z,3.90
2018-08-09T23:20:08.777Z,3.00
2018-08-09T23:22:38.975Z,2.50
2018-08-09T23:25:13.207Z,2.83
2018-08-09T23:27:44.939Z,3.63
2018-08-09T23:30:15.130Z,4.20
2018-08-09T23:32:45.291Z,5.13
2018-08-09T23:35:15.483Z,4.37
2018-08-09T23:37:45.715Z,4.00
2018-08-09T23:40:16.103Z,4.13
2018-08-09T23:42:47.269Z,4.17
2018-08-09T23:45:17.375Z,4.63
2018-08-09T23:47:47.564Z,4.73
2018-08-09T23:50:17.695Z,2.90
2018-08-09T23:52:47.949Z,2.60
2018-08-09T23:55:18.614Z,1.87
2018-08-09T23:57:48.820Z,1.30
